Time,TemperatureF,DewpointF,PressureIn,WindDirection,WindDirectionDegrees,WindSpeedMPH,WindSpeedGustMPH,Humidity,HourlyPrecipIn,Conditions,Clouds,dailyrainin,SoftwareType,DateUTC
2013-07-03 00:11:00,63.0,60.6,30.02,West,270,0.0,-999.0,92,-99.99,,,0.00,Acu-Link.com,2013-07-03 04:11:00,
2013-07-03 00:26:00,63.1,60.7,30.01,West,270,0.0,-999.0,92,-99.99,,,0.00,Acu-Link.com,2013-07-03 04:26:00,
2013-07-03 00:41:00,62.6,60.2,30.01,NE,45,0.0,-999.0,92,-99.99,,,0.00,Acu-Link.com,2013-07-03 04:41:00,
2013-07-03 00:56:00,62.6,60.5,30.01,NNE,22,0.0,-999.0,93,-99.99,,,0.00,Acu-Link.com,2013-07-03 04:56:00,
2013-07-03 01:11:00,62.4,60.3,30.02,West,270,0.0,-999.0,93,-99.99,,,0.00,Acu-Link.com,2013-07-03 05:11:00,
2013-07-03 01:27:00,62.8,61.0,30.02,East,90,0.0,-999.0,94,-99.99,,,0.00,Acu-Link.com,2013-07-03 05:27:00,
2013-07-03 01:42:00,62.6,60.8,30.01,NNW,337,0.0,-999.0,94,-99.99,,,0.00,Acu-Link.com,2013-07-03 05:42:00,
2013-07-03 01:57:00,62.6,60.8,30.01,NNE,22,1.1,-999.0,94,-99.99,,,0.00,Acu-Link.com,2013-07-03 05:57:00,
2013-07-03 02:12:00,62.1,60.4,30.01,NNW,337,0.0,-999.0,94,-99.99,,,0.00,Acu-Link.com,2013-07-03 06:12:00,
2013-07-03 02:43:00,60.8,59.7,30.00,West,270,0.0,-999.0,96,-99.99,,,0.00,Acu-Link.com,2013-07-03 06:43:00,
2013-07-03 03:13:00,60.1,59.5,30.00,NNE,22,0.0,-999.0,98,-99.99,,,0.00,Acu-Link.com,2013-07-03 07:13:00,
2013-07-03 03:28:00,60.3,59.7,30.00,ESE,112,0.0,-999.0,98,-99.99,,,0.00,Acu-Link.com,2013-07-03 07:28:00,
2013-07-03 03:44:00,59.9,59.3,29.99,North,0,0.0,-999.0,98,-99.99,,,0.00,Acu-Link.com,2013-07-03 07:44:00,
2013-07-03 03:59:00,59.7,59.1,29.99,North,0,0.0,-999.0,98,-99.99,,,0.00,Acu-Link.com,2013-07-03 07:59:00,
2013-07-03 04:14:00,59.7,59.1,29.99,NW,315,0.0,-999.0,98,-99.99,,,0.00,Acu-Link.com,2013-07-03 08:14:00,
2013-07-03 04:29:00,59.5,58.9,29.99,NNW,337,0.0,-999.0,98,-99.99,,,0.00,Acu-Link.com,2013-07-03 08:29:00,
2013-07-03 05:00:00,59.7,59.1,29.99,NE,45,0.0,-999.0,98,-99.99,,,0.00,Acu-Link.com,2013-07-03 09:00:00,
2013-07-03 05:15:00,59.7,59.1,30.00,NE,45,0.0,-999.0,98,-99.99,,,0.00,Acu-Link.com,2013-07-03 09:15:00,
2013-07-03 05:30:00,59.5,58.9,30.00,NNE,22,0.0,-999.0,98,-99.99,,,0.00,Acu-Link.com,2013-07-03 09:30:00,
2013-07-03 05:46:00,59.5,58.9,30.00,NNW,337,0.0,-999.0,98,-99.99,,,0.00,Acu-Link.com,2013-07-03 09:46:00,
2013-07-03 06:16:00,58.8,58.2,30.02,NE,45,0.0,-999.0,98,-99.99,,,0.00,Acu-Link.com,2013-07-03 10:16:00,
2013-07-03 06:31:00,59.2,58.6,30.02,West,270,0.0,-999.0,98,-99.99,,,0.00,Acu-Link.com,2013-07-03 10:31:00,
2013-07-03 06:47:00,60.1,59.5,30.02,NW,315,0.0,-999.0,98,-99.99,,,0.00,Acu-Link.com,2013-07-03 10:47:00,
2013-07-03 07:02:00,60.8,60.2,30.02,NE,45,0.0,-999.0,98,-99.99,,,0.00,Acu-Link.com,2013-07-03 11:02:00,
2013-07-03 07:33:00,65.3,64.7,30.03,NNE,22,2.2,-999.0,98,-99.99,,,0.00,Acu-Link.com,2013-07-03 11:33:00,
2013-07-03 07:48:00,68.2,66.1,30.03,NNE,22,2.2,-999.0,93,-99.99,,,0.00,Acu-Link.com,2013-07-03 11:48:00,
2013-07-03 08:03:00,70.3,66.6,30.04,ENE,67,0.0,-999.0,88,-99.99,,,0.00,Acu-Link.com,2013-07-03 12:03:00,
2013-07-03 08:18:00,69.1,65.7,30.03,North,0,1.7,-999.0,89,-99.99,,,0.00,Acu-Link.com,2013-07-03 12:18:00,
2013-07-03 08:33:00,69.8,66.7,30.03,NE,45,1.7,-999.0,90,-99.99,,,0.00,Acu-Link.com,2013-07-03 12:33:00,
2013-07-03 08:49:00,70.2,67.4,30.04,ESE,112,3.2,-999.0,91,-99.99,,,0.00,Acu-Link.com,2013-07-03 12:49:00,
2013-07-03 09:04:00,71.6,68.8,30.04,South,180,3.2,-999.0,91,-99.99,,,0.00,Acu-Link.com,2013-07-03 13:04:00,
2013-07-03 09:19:00,72.0,69.2,30.04,ESE,112,1.7,-999.0,91,-99.99,,,0.00,Acu-Link.com,2013-07-03 13:19:00,
2013-07-03 09:34:00,72.3,68.9,30.05,SE,135,0.0,-999.0,89,-99.99,,,0.00,Acu-Link.com,2013-07-03 13:34:00,
2013-07-03 09:49:00,74.1,70.3,30.05,ESE,112,2.7,-999.0,88,-99.99,,,0.00,Acu-Link.com,2013-07-03 13:49:00,
2013-07-03 10:20:00,75.2,70.7,30.04,ENE,67,2.2,-999.0,86,-99.99,,,0.00,Acu-Link.com,2013-07-03 14:20:00,
2013-07-03 10:35:00,75.2,70.7,30.04,ESE,112,2.7,-999.0,86,-99.99,,,0.00,Acu-Link.com,2013-07-03 14:35:00,
2013-07-03 10:50:00,75.7,71.2,30.05,SSE,157,4.2,-999.0,86,-99.99,,,0.00,Acu-Link.com,2013-07-03 14:50:00,
2013-07-03 11:06:00,78.4,72.4,30.04,SSE,157,2.2,-999.0,82,-99.99,,,0.00,Acu-Link.com,2013-07-03 15:06:00,
2013-07-03 11:36:00,81.0,74.2,30.04,SSE,157,6.3,-999.0,80,-99.99,,,0.00,Acu-Link.com,2013-07-03 15:36:00,
2013-07-03 12:06:00,81.1,73.2,30.03,SSE,157,4.2,-999.0,77,-99.99,,,0.00,Acu-Link.com,2013-07-03 16:06:00,
2013-07-03 12:22:00,81.1,74.7,30.03,West,270,1.1,-999.0,81,-99.99,,,0.00,Acu-Link.com,2013-07-03 16:22:00,
2013-07-03 12:37:00,82.8,74.4,30.03,SE,135,3.7,-999.0,76,-99.99,,,0.00,Acu-Link.com,2013-07-03 16:37:00,
2013-07-03 12:52:00,83.5,73.9,30.03,SSW,202,3.2,-999.0,73,-99.99,,,0.00,Acu-Link.com,2013-07-03 16:52:00,
2013-07-03 13:07:00,86.2,76.9,30.03,ESE,112,4.7,-999.0,74,-99.99,,,0.00,Acu-Link.com,2013-07-03 17:07:00,
2013-07-03 13:22:00,84.9,74.4,30.02,NE,45,4.7,-999.0,71,-99.99,,,0.00,Acu-Link.com,2013-07-03 17:22:00,
2013-07-03 13:38:00,85.3,73.9,30.01,East,90,1.7,-999.0,69,-99.99,,,0.00,Acu-Link.com,2013-07-03 17:38:00,
2013-07-03 13:53:00,85.1,74.6,30.00,WNW,292,4.2,-999.0,71,-99.99,,,0.00,Acu-Link.com,2013-07-03 17:53:00,
2013-07-03 14:08:00,83.7,71.1,30.01,SW,225,3.7,-999.0,66,-99.99,,,0.00,Acu-Link.com,2013-07-03 18:08:00,
2013-07-03 14:23:00,86.0,72.8,30.00,WSW,247,3.2,-999.0,65,-99.99,,,0.00,Acu-Link.com,2013-07-03 18:23:00,
2013-07-03 14:38:00,86.2,73.0,30.00,West,270,2.7,-999.0,65,-99.99,,,0.00,Acu-Link.com,2013-07-03 18:38:00,
2013-07-03 15:09:00,85.5,71.4,30.00,SSE,157,4.2,-999.0,63,-99.99,,,0.00,Acu-Link.com,2013-07-03 19:09:00,
2013-07-03 15:24:00,86.5,71.9,30.00,WSW,247,2.2,-999.0,62,-99.99,,,0.00,Acu-Link.com,2013-07-03 19:24:00,
2013-07-03 15:39:00,87.6,72.0,30.00,West,270,4.2,-999.0,60,-99.99,,,0.00,Acu-Link.com,2013-07-03 19:39:00,
2013-07-03 16:10:00,86.0,70.5,29.99,South,180,6.3,-999.0,60,-99.99,,,0.00,Acu-Link.com,2013-07-03 20:10:00,
2013-07-03 16:25:00,85.1,69.1,29.99,WSW,247,5.3,-999.0,59,-99.99,,,0.00,Acu-Link.com,2013-07-03 20:25:00,
2013-07-03 16:40:00,84.7,70.2,29.99,West,270,3.2,-999.0,62,-99.99,,,0.00,Acu-Link.com,2013-07-03 20:40:00,
2013-07-03 16:55:00,84.4,70.4,29.99,WSW,247,2.7,-999.0,63,-99.99,,,0.00,Acu-Link.com,2013-07-03 20:55:00,
2013-07-03 17:11:00,84.6,70.1,29.99,SSW,202,4.2,-999.0,62,-99.99,,,0.00,Acu-Link.com,2013-07-03 21:11:00,
2013-07-03 17:26:00,83.8,70.3,29.98,WNW,292,3.7,-999.0,64,-99.99,,,0.00,Acu-Link.com,2013-07-03 21:26:00,
2013-07-03 17:41:00,83.8,70.8,29.98,ESE,112,6.3,-999.0,65,-99.99,,,0.00,Acu-Link.com,2013-07-03 21:41:00,
2013-07-03 18:11:00,82.6,69.6,29.98,SW,225,3.7,-999.0,65,-99.99,,,0.00,Acu-Link.com,2013-07-03 22:11:00,
2013-07-03 18:27:00,82.6,70.1,29.99,East,90,2.7,-999.0,66,-99.99,,,0.00,Acu-Link.com,2013-07-03 22:27:00,
2013-07-03 18:42:00,82.2,69.7,29.98,SW,225,3.7,-999.0,66,-99.99,,,0.00,Acu-Link.com,2013-07-03 22:42:00,
2013-07-03 18:57:00,82.4,70.3,29.99,South,180,4.2,-999.0,67,-99.99,,,0.00,Acu-Link.com,2013-07-03 22:57:00,
2013-07-03 19:12:00,82.6,70.1,29.99,SW,225,4.2,-999.0,66,-99.99,,,0.00,Acu-Link.com,2013-07-03 23:12:00,
2013-07-03 19:43:00,82.2,70.1,29.99,West,270,0.0,-999.0,67,-99.99,,,0.00,Acu-Link.com,2013-07-03 23:43:00,
2013-07-03 19:58:00,81.7,70.1,29.98,SE,135,1.7,-999.0,68,-99.99,,,0.00,Acu-Link.com,2013-07-03 23:58:00,
2013-07-03 20:13:00,81.0,69.8,29.99,SW,225,1.1,-999.0,69,-99.99,,,0.00,Acu-Link.com,2013-07-04 00:13:00,
2013-07-03 20:28:00,80.2,69.5,29.99,SE,135,2.7,-999.0,70,-99.99,,,0.00,Acu-Link.com,2013-07-04 00:28:00,
2013-07-03 20:43:00,79.5,69.7,29.98,SSE,157,1.7,-999.0,72,-99.99,,,0.00,Acu-Link.com,2013-07-04 00:43:00,
2013-07-03 20:58:00,78.6,69.2,29.99,SSE,157,3.2,-999.0,73,-99.99,,,0.00,Acu-Link.com,2013-07-04 00:58:00,
2013-07-03 21:14:00,78.1,69.5,29.99,WSW,247,1.7,-999.0,75,-99.99,,,0.00,Acu-Link.com,2013-07-04 01:14:00,
2013-07-03 21:29:00,77.5,70.1,29.99,ESE,112,2.2,-999.0,78,-99.99,,,0.00,Acu-Link.com,2013-07-04 01:29:00,
2013-07-03 21:44:00,77.0,71.1,30.00,SSE,157,5.3,-999.0,82,-99.99,,,0.00,Acu-Link.com,2013-07-04 01:44:00,
2013-07-03 21:59:00,75.9,71.1,30.00,SSE,157,2.7,-999.0,85,-99.99,,,0.00,Acu-Link.com,2013-07-04 01:59:00,
2013-07-03 22:14:00,75.4,70.9,30.01,ESE,112,3.7,-999.0,86,-99.99,,,0.00,Acu-Link.com,2013-07-04 02:14:00,
2013-07-03 22:30:00,75.0,70.9,30.02,ESE,112,5.8,-999.0,87,-99.99,,,0.00,Acu-Link.com,2013-07-04 02:30:00,
2013-07-03 22:45:00,74.7,70.9,30.02,SSE,157,4.2,-999.0,88,-99.99,,,0.00,Acu-Link.com,2013-07-04 02:45:00,
2013-07-03 23:00:00,74.3,70.5,30.02,South,180,0.0,-999.0,88,-99.99,,,0.00,Acu-Link.com,2013-07-04 03:00:00,
2013-07-03 23:15:00,73.8,70.0,30.02,SSW,202,0.0,-999.0,88,-99.99,,,0.00,Acu-Link.com,2013-07-04 03:15:00,
2013-07-03 23:30:00,73.6,70.1,30.02,SSW,202,0.0,-999.0,89,-99.99,,,0.00,Acu-Link.com,2013-07-04 03:30:00,
2013-07-03 23:46:00,73.2,69.8,30.02,WNW,292,0.0,-999.0,89,-99.99,,,0.00,Acu-Link.com,2013-07-04 03:46:00,